sensor_id;sensor_type;location;lat;lon;timestamp;temperature;humidity
57434;DHT22;43277;52.672;6.984;2023-08-06T00:00:05;14.80;99.90
57434;DHT22;43277;52.672;6.984;2023-08-06T00:02:31;14.80;99.90
57434;DHT22;43277;52.672;6.984;2023-08-06T00:04:56;14.80;99.90
57434;DHT22;43277;52.672;6.984;2023-08-06T00:07:22;14.80;99.90
57434;DHT22;43277;52.672;6.984;2023-08-06T00:09:48;14.80;99.90
57434;DHT22;43277;52.672;6.984;2023-08-06T00:12:13;14.90;99.90
57434;DHT22;43277;52.672;6.984;2023-08-06T00:14:39;14.80;99.90
57434;DHT22;43277;52.672;6.984;2023-08-06T00:17:05;14.80;99.90
57434;DHT22;43277;52.672;6.984;2023-08-06T00:19:31;14.80;99.90
57434;DHT22;43277;52.672;6.984;2023-08-06T00:21:57;14.80;99.90
57434;DHT22;43277;52.672;6.984;2023-08-06T00:24:23;14.80;99.90
57434;DHT22;43277;52.672;6.984;2023-08-06T00:26:48;14.80;99.90
57434;DHT22;43277;52.672;6.984;2023-08-06T00:29:14;14.70;99.90
57434;DHT22;43277;52.672;6.984;2023-08-06T00:31:39;14.80;99.90
57434;DHT22;43277;52.672;6.984;2023-08-06T00:34:05;14.80;99.90
57434;DHT22;43277;52.672;6.984;2023-08-06T00:36:31;14.70;99.90
57434;DHT22;43277;52.672;6.984;2023-08-06T00:38:56;14.70;99.90
57434;DHT22;43277;52.672;6.984;2023-08-06T00:41:22;14.70;99.90
57434;DHT22;43277;52.672;6.984;2023-08-06T00:43:47;14.70;99.90
57434;DHT22;43277;52.672;6.984;2023-08-06T00:46:13;14.70;99.90
57434;DHT22;43277;52.672;6.984;2023-08-06T00:48:40;14.70;99.90
57434;DHT22;43277;52.672;6.984;2023-08-06T00:51:08;14.70;99.90
57434;DHT22;43277;52.672;6.984;2023-08-06T00:53:34;14.70;99.90
57434;DHT22;43277;52.672;6.984;2023-08-06T00:56:00;14.60;99.90
57434;DHT22;43277;52.672;6.984;2023-08-06T00:58:26;14.60;99.90
57434;DHT22;43277;52.672;6.984;2023-08-06T01:00:51;14.60;99.90
57434;DHT22;43277;52.672;6.984;2023-08-06T01:03:17;14.60;99.90
57434;DHT22;43277;52.672;6.984;2023-08-06T01:05:43;14.60;99.90
57434;DHT22;43277;52.672;6.984;2023-08-06T01:11:14;14.60;99.90
57434;DHT22;43277;52.672;6.984;2023-08-06T01:13:48;14.60;99.90
57434;DHT22;43277;52.672;6.984;2023-08-06T01:16:19;14.70;99.90
57434;DHT22;43277;52.672;6.984;2023-08-06T01:18:47;14.60;99.90
57434;DHT22;43277;52.672;6.984;2023-08-06T01:21:15;14.60;99.90
57434;DHT22;43277;52.672;6.984;2023-08-06T01:23:42;14.60;99.90
57434;DHT22;43277;52.672;6.984;2023-08-06T01:29:10;14.60;99.90
57434;DHT22;43277;52.672;6.984;2023-08-06T01:31:39;14.60;99.90
57434;DHT22;43277;52.672;6.984;2023-08-06T01:34:10;14.60;99.90
57434;DHT22;43277;52.672;6.984;2023-08-06T01:36:40;14.60;99.90
57434;DHT22;43277;52.672;6.984;2023-08-06T01:39:06;14.60;99.90
57434;DHT22;43277;52.672;6.984;2023-08-06T01:41:31;14.50;99.90
57434;DHT22;43277;52.672;6.984;2023-08-06T01:43:57;14.50;99.90
57434;DHT22;43277;52.672;6.984;2023-08-06T01:46:23;14.50;99.90
57434;DHT22;43277;52.672;6.984;2023-08-06T01:48:48;14.50;99.90
57434;DHT22;43277;52.672;6.984;2023-08-06T01:51:14;14.60;99.90
57434;DHT22;43277;52.672;6.984;2023-08-06T01:53:39;14.50;99.90
57434;DHT22;43277;52.672;6.984;2023-08-06T01:56:05;14.60;99.90
57434;DHT22;43277;52.672;6.984;2023-08-06T01:58:31;14.50;99.90
57434;DHT22;43277;52.672;6.984;2023-08-06T02:00:56;14.50;99.90
57434;DHT22;43277;52.672;6.984;2023-08-06T02:03:22;14.50;99.90
57434;DHT22;43277;52.672;6.984;2023-08-06T02:05:48;14.60;99.90
57434;DHT22;43277;52.672;6.984;2023-08-06T02:08:13;14.60;99.90
57434;DHT22;43277;52.672;6.984;2023-08-06T02:10:39;14.60;99.90
57434;DHT22;43277;52.672;6.984;2023-08-06T02:13:04;14.60;99.90
57434;DHT22;43277;52.672;6.984;2023-08-06T02:15:30;14.60;99.90
57434;DHT22;43277;52.672;6.984;2023-08-06T02:17:56;14.70;99.90
57434;DHT22;43277;52.672;6.984;2023-08-06T02:20:21;14.60;99.90
57434;DHT22;43277;52.672;6.984;2023-08-06T02:22:47;14.60;99.90
57434;DHT22;43277;52.672;6.984;2023-08-06T02:25:12;14.60;99.90
57434;DHT22;43277;52.672;6.984;2023-08-06T02:27:38;14.60;99.90
57434;DHT22;43277;52.672;6.984;2023-08-06T02:30:05;14.60;99.90
57434;DHT22;43277;52.672;6.984;2023-08-06T02:32:31;14.50;99.90
57434;DHT22;43277;52.672;6.984;2023-08-06T02:34:57;14.50;99.90
57434;DHT22;43277;52.672;6.984;2023-08-06T02:37:23;14.60;99.90
57434;DHT22;43277;52.672;6.984;2023-08-06T02:39:48;14.50;99.90
57434;DHT22;43277;52.672;6.984;2023-08-06T02:42:14;14.60;99.90
57434;DHT22;43277;52.672;6.984;2023-08-06T02:44:40;14.50;99.90
57434;DHT22;43277;52.672;6.984;2023-08-06T02:47:06;14.50;99.90
57434;DHT22;43277;52.672;6.984;2023-08-06T02:49:31;14.40;99.90
57434;DHT22;43277;52.672;6.984;2023-08-06T02:51:57;14.40;99.90
57434;DHT22;43277;52.672;6.984;2023-08-06T02:54:22;14.40;99.90
57434;DHT22;43277;52.672;6.984;2023-08-06T02:56:48;14.50;99.90
57434;DHT22;43277;52.672;6.984;2023-08-06T02:59:14;14.40;99.90
57434;DHT22;43277;52.672;6.984;2023-08-06T03:01:39;14.50;99.90
57434;DHT22;43277;52.672;6.984;2023-08-06T03:04:05;14.40;99.90
57434;DHT22;43277;52.672;6.984;2023-08-06T03:06:31;14.40;99.90
57434;DHT22;43277;52.672;6.984;2023-08-06T03:08:57;14.40;99.90
57434;DHT22;43277;52.672;6.984;2023-08-06T03:11:22;14.40;99.90
57434;DHT22;43277;52.672;6.984;2023-08-06T03:13:48;14.40;99.90
57434;DHT22;43277;52.672;6.984;2023-08-06T03:16:14;14.40;99.90
57434;DHT22;43277;52.672;6.984;2023-08-06T03:18:39;14.50;99.90
57434;DHT22;43277;52.672;6.984;2023-08-06T03:21:05;14.40;99.90
57434;DHT22;43277;52.672;6.984;2023-08-06T03:23:31;14.40;99.90
57434;DHT22;43277;52.672;6.984;2023-08-06T03:26:01;14.50;99.90
57434;DHT22;43277;52.672;6.984;2023-08-06T03:28:27;14.50;99.90
57434;DHT22;43277;52.672;6.984;2023-08-06T03:31:00;14.50;99.90
57434;DHT22;43277;52.672;6.984;2023-08-06T03:33:26;14.50;99.90
57434;DHT22;43277;52.672;6.984;2023-08-06T03:35:51;14.50;99.90
57434;DHT22;43277;52.672;6.984;2023-08-06T03:38:17;14.50;99.90
57434;DHT22;43277;52.672;6.984;2023-08-06T03:40:42;14.50;99.90
57434;DHT22;43277;52.672;6.984;2023-08-06T03:43:08;14.50;99.90
57434;DHT22;43277;52.672;6.984;2023-08-06T03:45:34;14.50;99.90
57434;DHT22;43277;52.672;6.984;2023-08-06T03:48:00;14.50;99.90
57434;DHT22;43277;52.672;6.984;2023-08-06T03:50:25;14.50;99.90
57434;DHT22;43277;52.672;6.984;2023-08-06T03:52:51;14.50;99.90
57434;DHT22;43277;52.672;6.984;2023-08-06T03:55:16;14.50;99.90
57434;DHT22;43277;52.672;6.984;2023-08-06T03:57:42;14.50;99.90
57434;DHT22;43277;52.672;6.984;2023-08-06T04:00:08;14.40;99.90
57434;DHT22;43277;52.672;6.984;2023-08-06T04:02:34;14.40;99.90
57434;DHT22;43277;52.672;6.984;2023-08-06T04:05:00;14.30;99.90
57434;DHT22;43277;52.672;6.984;2023-08-06T04:07:26;14.30;99.90
57434;DHT22;43277;52.672;6.984;2023-08-06T04:09:57;14.30;99.90
57434;DHT22;43277;52.672;6.984;2023-08-06T04:12:23;14.30;99.90
57434;DHT22;43277;52.672;6.984;2023-08-06T04:14:50;14.20;99.90
57434;DHT22;43277;52.672;6.984;2023-08-06T04:17:17;14.20;99.90
57434;DHT22;43277;52.672;6.984;2023-08-06T04:19:52;14.20;99.90
57434;DHT22;43277;52.672;6.984;2023-08-06T04:22:18;14.10;99.90
57434;DHT22;43277;52.672;6.984;2023-08-06T04:24:44;14.10;99.90
57434;DHT22;43277;52.672;6.984;2023-08-06T04:27:11;14.10;99.90
57434;DHT22;43277;52.672;6.984;2023-08-06T04:29:37;14.10;99.90
57434;DHT22;43277;52.672;6.984;2023-08-06T04:32:08;14.10;99.90
57434;DHT22;43277;52.672;6.984;2023-08-06T04:34:35;14.20;99.90
57434;DHT22;43277;52.672;6.984;2023-08-06T04:37:02;14.10;99.90
57434;DHT22;43277;52.672;6.984;2023-08-06T04:39:27;14.20;99.90
57434;DHT22;43277;52.672;6.984;2023-08-06T04:41:53;14.20;99.90
57434;DHT22;43277;52.672;6.984;2023-08-06T04:44:19;14.20;99.90
57434;DHT22;43277;52.672;6.984;2023-08-06T04:46:46;14.20;99.90
57434;DHT22;43277;52.672;6.984;2023-08-06T04:49:11;14.20;99.90
57434;DHT22;43277;52.672;6.984;2023-08-06T04:51:37;14.30;99.90
57434;DHT22;43277;52.672;6.984;2023-08-06T04:54:03;14.30;99.90
57434;DHT22;43277;52.672;6.984;2023-08-06T04:56:29;14.30;99.90
57434;DHT22;43277;52.672;6.984;2023-08-06T04:58:54;14.30;99.90
57434;DHT22;43277;52.672;6.984;2023-08-06T05:01:20;14.30;99.90
57434;DHT22;43277;52.672;6.984;2023-08-06T05:03:47;14.40;99.90
57434;DHT22;43277;52.672;6.984;2023-08-06T05:06:13;14.30;99.90
57434;DHT22;43277;52.672;6.984;2023-08-06T05:08:38;14.40;99.90
57434;DHT22;43277;52.672;6.984;2023-08-06T05:11:04;14.40;99.90
57434;DHT22;43277;52.672;6.984;2023-08-06T05:13:29;14.40;99.90
57434;DHT22;43277;52.672;6.984;2023-08-06T05:15:55;14.40;99.90
57434;DHT22;43277;52.672;6.984;2023-08-06T05:18:21;14.40;99.90
57434;DHT22;43277;52.672;6.984;2023-08-06T05:20:47;14.40;99.90
57434;DHT22;43277;52.672;6.984;2023-08-06T05:23:13;14.40;99.90
57434;DHT22;43277;52.672;6.984;2023-08-06T05:25:38;14.50;99.90
57434;DHT22;43277;52.672;6.984;2023-08-06T05:28:04;14.50;99.90
57434;DHT22;43277;52.672;6.984;2023-08-06T05:30:30;14.40;99.90
57434;DHT22;43277;52.672;6.984;2023-08-06T05:32:56;14.50;99.90
57434;DHT22;43277;52.672;6.984;2023-08-06T05:35:22;14.50;99.90
57434;DHT22;43277;52.672;6.984;2023-08-06T05:37:48;14.50;99.90
57434;DHT22;43277;52.672;6.984;2023-08-06T05:40:14;14.60;99.90
57434;DHT22;43277;52.672;6.984;2023-08-06T05:42:40;14.70;99.90
57434;DHT22;43277;52.672;6.984;2023-08-06T05:45:07;14.70;99.90
57434;DHT22;43277;52.672;6.984;2023-08-06T05:47:32;14.80;99.90
57434;DHT22;43277;52.672;6.984;2023-08-06T05:49:58;14.80;99.90
57434;DHT22;43277;52.672;6.984;2023-08-06T05:52:24;14.90;99.90
57434;DHT22;43277;52.672;6.984;2023-08-06T05:54:49;14.90;99.90
57434;DHT22;43277;52.672;6.984;2023-08-06T05:57:15;15.00;99.90
57434;DHT22;43277;52.672;6.984;2023-08-06T05:59:41;15.10;99.90
57434;DHT22;43277;52.672;6.984;2023-08-06T06:02:07;15.10;99.90
57434;DHT22;43277;52.672;6.984;2023-08-06T06:04:33;15.10;99.90
57434;DHT22;43277;52.672;6.984;2023-08-06T06:06:58;15.20;99.90
57434;DHT22;43277;52.672;6.984;2023-08-06T06:09:24;15.20;99.90
57434;DHT22;43277;52.672;6.984;2023-08-06T06:11:49;15.30;99.90
57434;DHT22;43277;52.672;6.984;2023-08-06T06:14:17;15.30;99.90
57434;DHT22;43277;52.672;6.984;2023-08-06T06:16:43;15.40;99.90
57434;DHT22;43277;52.672;6.984;2023-08-06T06:19:08;15.40;99.90
57434;DHT22;43277;52.672;6.984;2023-08-06T06:21:34;15.50;99.90
57434;DHT22;43277;52.672;6.984;2023-08-06T06:23:59;15.50;99.90
57434;DHT22;43277;52.672;6.984;2023-08-06T06:26:25;15.60;99.90
57434;DHT22;43277;52.672;6.984;2023-08-06T06:28:51;15.60;99.90
57434;DHT22;43277;52.672;6.984;2023-08-06T06:31:16;15.70;99.90
57434;DHT22;43277;52.672;6.984;2023-08-06T06:33:42;15.70;99.90
57434;DHT22;43277;52.672;6.984;2023-08-06T06:36:07;15.80;99.90
57434;DHT22;43277;52.672;6.984;2023-08-06T06:38:34;15.90;99.90
57434;DHT22;43277;52.672;6.984;2023-08-06T06:40:59;15.90;99.90
57434;DHT22;43277;52.672;6.984;2023-08-06T06:43:25;16.00;99.90
57434;DHT22;43277;52.672;6.984;2023-08-06T06:46:01;16.00;99.90
57434;DHT22;43277;52.672;6.984;2023-08-06T06:48:28;16.10;99.90
57434;DHT22;43277;52.672;6.984;2023-08-06T06:50:54;16.10;99.90
57434;DHT22;43277;52.672;6.984;2023-08-06T06:53:19;16.20;99.90
57434;DHT22;43277;52.672;6.984;2023-08-06T06:55:45;16.20;99.90
57434;DHT22;43277;52.672;6.984;2023-08-06T06:58:11;16.30;99.90
57434;DHT22;43277;52.672;6.984;2023-08-06T07:00:37;16.30;99.90
57434;DHT22;43277;52.672;6.984;2023-08-06T07:03:03;16.40;99.90
57434;DHT22;43277;52.672;6.984;2023-08-06T07:05:29;16.60;99.90
57434;DHT22;43277;52.672;6.984;2023-08-06T07:07:54;16.60;99.90
57434;DHT22;43277;52.672;6.984;2023-08-06T07:10:20;16.70;99.90
57434;DHT22;43277;52.672;6.984;2023-08-06T07:12:45;16.80;99.90
57434;DHT22;43277;52.672;6.984;2023-08-06T07:15:11;16.90;99.90
57434;DHT22;43277;52.672;6.984;2023-08-06T07:17:37;16.90;99.90
57434;DHT22;43277;52.672;6.984;2023-08-06T07:20:03;16.80;99.90
57434;DHT22;43277;52.672;6.984;2023-08-06T07:22:29;16.90;99.90
57434;DHT22;43277;52.672;6.984;2023-08-06T07:24:55;16.80;99.90
57434;DHT22;43277;52.672;6.984;2023-08-06T07:27:20;16.90;99.90
57434;DHT22;43277;52.672;6.984;2023-08-06T07:29:46;17.00;99.90
57434;DHT22;43277;52.672;6.984;2023-08-06T07:32:11;17.10;99.90
57434;DHT22;43277;52.672;6.984;2023-08-06T07:34:37;17.10;99.90
57434;DHT22;43277;52.672;6.984;2023-08-06T07:37:03;17.10;99.90
57434;DHT22;43277;52.672;6.984;2023-08-06T07:39:28;17.10;99.90
57434;DHT22;43277;52.672;6.984;2023-08-06T07:41:54;17.10;99.90
57434;DHT22;43277;52.672;6.984;2023-08-06T07:44:20;17.20;99.90
57434;DHT22;43277;52.672;6.984;2023-08-06T07:46:45;17.20;99.90
57434;DHT22;43277;52.672;6.984;2023-08-06T07:49:11;17.30;99.90
57434;DHT22;43277;52.672;6.984;2023-08-06T07:51:37;17.30;99.90
57434;DHT22;43277;52.672;6.984;2023-08-06T07:54:02;17.30;99.90
57434;DHT22;43277;52.672;6.984;2023-08-06T07:56:28;17.30;99.90
57434;DHT22;43277;52.672;6.984;2023-08-06T07:58:54;17.30;99.90
57434;DHT22;43277;52.672;6.984;2023-08-06T08:01:20;17.40;99.90
57434;DHT22;43277;52.672;6.984;2023-08-06T08:03:45;17.40;99.90
57434;DHT22;43277;52.672;6.984;2023-08-06T08:06:11;17.50;99.90
57434;DHT22;43277;52.672;6.984;2023-08-06T08:08:37;17.50;99.90
57434;DHT22;43277;52.672;6.984;2023-08-06T08:11:04;17.50;99.90
57434;DHT22;43277;52.672;6.984;2023-08-06T08:13:29;17.50;99.90
57434;DHT22;43277;52.672;6.984;2023-08-06T08:15:59;17.60;99.90
57434;DHT22;43277;52.672;6.984;2023-08-06T08:18:25;17.60;99.90
57434;DHT22;43277;52.672;6.984;2023-08-06T08:20:51;17.70;99.90
57434;DHT22;43277;52.672;6.984;2023-08-06T08:23:16;17.80;99.90
57434;DHT22;43277;52.672;6.984;2023-08-06T08:25:42;17.80;99.90
57434;DHT22;43277;52.672;6.984;2023-08-06T08:28:08;17.80;99.90
57434;DHT22;43277;52.672;6.984;2023-08-06T08:30:33;17.80;99.90
57434;DHT22;43277;52.672;6.984;2023-08-06T08:32:59;17.80;99.90
57434;DHT22;43277;52.672;6.984;2023-08-06T08:35:25;17.90;99.90
57434;DHT22;43277;52.672;6.984;2023-08-06T08:37:50;17.90;99.90
57434;DHT22;43277;52.672;6.984;2023-08-06T08:40:17;18.00;99.90
57434;DHT22;43277;52.672;6.984;2023-08-06T08:42:43;18.10;99.90
57434;DHT22;43277;52.672;6.984;2023-08-06T08:45:13;18.10;99.90
57434;DHT22;43277;52.672;6.984;2023-08-06T08:47:41;18.20;99.90
57434;DHT22;43277;52.672;6.984;2023-08-06T08:50:08;18.30;99.90
57434;DHT22;43277;52.672;6.984;2023-08-06T08:52:35;18.40;99.90
57434;DHT22;43277;52.672;6.984;2023-08-06T08:55:02;18.40;99.90
57434;DHT22;43277;52.672;6.984;2023-08-06T08:57:27;18.50;99.90
57434;DHT22;43277;52.672;6.984;2023-08-06T08:59:53;18.50;99.90
57434;DHT22;43277;52.672;6.984;2023-08-06T09:02:21;18.50;99.90
57434;DHT22;43277;52.672;6.984;2023-08-06T09:04:48;18.50;99.90
57434;DHT22;43277;52.672;6.984;2023-08-06T09:07:18;18.60;99.90
57434;DHT22;43277;52.672;6.984;2023-08-06T09:09:43;18.70;99.90
57434;DHT22;43277;52.672;6.984;2023-08-06T09:12:14;18.80;99.90
57434;DHT22;43277;52.672;6.984;2023-08-06T09:14:40;18.80;99.90
57434;DHT22;43277;52.672;6.984;2023-08-06T09:17:06;18.80;99.90
57434;DHT22;43277;52.672;6.984;2023-08-06T09:19:32;18.80;99.90
57434;DHT22;43277;52.672;6.984;2023-08-06T09:21:58;18.80;99.90
57434;DHT22;43277;52.672;6.984;2023-08-06T09:24:24;18.90;99.90
57434;DHT22;43277;52.672;6.984;2023-08-06T09:26:51;18.80;99.90
57434;DHT22;43277;52.672;6.984;2023-08-06T09:29:17;18.80;99.90
57434;DHT22;43277;52.672;6.984;2023-08-06T09:31:43;18.90;99.90
57434;DHT22;43277;52.672;6.984;2023-08-06T09:34:16;18.90;99.90
57434;DHT22;43277;52.672;6.984;2023-08-06T09:36:42;19.00;99.90
57434;DHT22;43277;52.672;6.984;2023-08-06T09:39:19;19.10;99.90
57434;DHT22;43277;52.672;6.984;2023-08-06T09:41:46;19.20;99.90
57434;DHT22;43277;52.672;6.984;2023-08-06T09:44:18;19.20;99.90
57434;DHT22;43277;52.672;6.984;2023-08-06T09:46:54;19.60;99.90
57434;DHT22;43277;52.672;6.984;2023-08-06T09:49:28;20.00;99.90
57434;DHT22;43277;52.672;6.984;2023-08-06T09:51:54;20.40;99.90
57434;DHT22;43277;52.672;6.984;2023-08-06T09:54:28;20.60;99.90
57434;DHT22;43277;52.672;6.984;2023-08-06T09:56:56;20.70;99.90
57434;DHT22;43277;52.672;6.984;2023-08-06T09:59:25;20.80;99.90
57434;DHT22;43277;52.672;6.984;2023-08-06T10:01:53;20.80;99.90
57434;DHT22;43277;52.672;6.984;2023-08-06T10:04:20;20.90;99.90
57434;DHT22;43277;52.672;6.984;2023-08-06T10:06:48;21.20;99.90
57434;DHT22;43277;52.672;6.984;2023-08-06T10:09:14;21.40;99.90
57434;DHT22;43277;52.672;6.984;2023-08-06T10:11:42;21.60;99.90
57434;DHT22;43277;52.672;6.984;2023-08-06T10:14:25;21.70;99.90
57434;DHT22;43277;52.672;6.984;2023-08-06T10:16:52;21.70;99.90
57434;DHT22;43277;52.672;6.984;2023-08-06T10:19:19;21.60;99.90
57434;DHT22;43277;52.672;6.984;2023-08-06T10:24:56;21.70;99.90
57434;DHT22;43277;52.672;6.984;2023-08-06T10:27:37;21.80;99.90
57434;DHT22;43277;52.672;6.984;2023-08-06T10:32:51;21.70;99.90
57434;DHT22;43277;52.672;6.984;2023-08-06T10:35:50;21.80;99.90
57434;DHT22;43277;52.672;6.984;2023-08-06T10:38:20;22.00;99.90
57434;DHT22;43277;52.672;6.984;2023-08-06T10:43:34;22.30;99.90
57434;DHT22;43277;52.672;6.984;2023-08-06T10:46:02;22.30;99.90
57434;DHT22;43277;52.672;6.984;2023-08-06T10:48:30;22.20;99.90
57434;DHT22;43277;52.672;6.984;2023-08-06T10:50:56;22.10;99.90
57434;DHT22;43277;52.672;6.984;2023-08-06T10:53:22;22.00;99.90
57434;DHT22;43277;52.672;6.984;2023-08-06T10:55:48;21.80;99.90
57434;DHT22;43277;52.672;6.984;2023-08-06T10:58:15;21.70;99.90
57434;DHT22;43277;52.672;6.984;2023-08-06T11:00:42;21.60;99.90
57434;DHT22;43277;52.672;6.984;2023-08-06T11:03:08;21.30;99.90
57434;DHT22;43277;52.672;6.984;2023-08-06T11:05:34;21.20;99.90
57434;DHT22;43277;52.672;6.984;2023-08-06T11:07:59;21.10;99.90
57434;DHT22;43277;52.672;6.984;2023-08-06T11:10:25;20.90;99.90
57434;DHT22;43277;52.672;6.984;2023-08-06T11:12:51;20.80;99.90
57434;DHT22;43277;52.672;6.984;2023-08-06T11:15:16;20.70;99.90
57434;DHT22;43277;52.672;6.984;2023-08-06T11:17:42;20.50;99.90
57434;DHT22;43277;52.672;6.984;2023-08-06T11:20:08;20.40;99.90
57434;DHT22;43277;52.672;6.984;2023-08-06T11:22:36;20.30;99.90
57434;DHT22;43277;52.672;6.984;2023-08-06T11:25:01;20.20;99.90
57434;DHT22;43277;52.672;6.984;2023-08-06T11:27:27;20.10;99.90
57434;DHT22;43277;52.672;6.984;2023-08-06T11:29:56;20.00;99.90
57434;DHT22;43277;52.672;6.984;2023-08-06T11:32:21;20.00;99.90
57434;DHT22;43277;52.672;6.984;2023-08-06T11:34:47;20.00;99.90
57434;DHT22;43277;52.672;6.984;2023-08-06T11:37:12;20.00;99.90
57434;DHT22;43277;52.672;6.984;2023-08-06T11:39:38;20.00;99.90
57434;DHT22;43277;52.672;6.984;2023-08-06T11:42:11;20.00;99.90
57434;DHT22;43277;52.672;6.984;2023-08-06T11:44:37;20.00;99.90
57434;DHT22;43277;52.672;6.984;2023-08-06T11:47:04;20.00;99.90
57434;DHT22;43277;52.672;6.984;2023-08-06T11:49:57;20.00;99.90
57434;DHT22;43277;52.672;6.984;2023-08-06T11:52:24;20.00;99.90
57434;DHT22;43277;52.672;6.984;2023-08-06T11:55:04;20.00;99.90
57434;DHT22;43277;52.672;6.984;2023-08-06T11:57:36;20.10;99.90
57434;DHT22;43277;52.672;6.984;2023-08-06T12:00:06;20.00;99.90
57434;DHT22;43277;52.672;6.984;2023-08-06T12:02:33;20.10;99.90
57434;DHT22;43277;52.672;6.984;2023-08-06T12:07:46;20.20;99.90
57434;DHT22;43277;52.672;6.984;2023-08-06T12:10:13;20.20;99.90
57434;DHT22;43277;52.672;6.984;2023-08-06T12:12:39;20.20;99.90
57434;DHT22;43277;52.672;6.984;2023-08-06T12:15:06;20.20;99.90
57434;DHT22;43277;52.672;6.984;2023-08-06T12:17:33;20.20;99.90
57434;DHT22;43277;52.672;6.984;2023-08-06T12:19:59;20.20;99.90
57434;DHT22;43277;52.672;6.984;2023-08-06T12:22:24;20.30;99.90
57434;DHT22;43277;52.672;6.984;2023-08-06T12:24:50;20.40;99.90
57434;DHT22;43277;52.672;6.984;2023-08-06T12:27:16;20.50;99.90
57434;DHT22;43277;52.672;6.984;2023-08-06T12:29:43;20.70;99.90
57434;DHT22;43277;52.672;6.984;2023-08-06T12:32:12;20.80;99.90
57434;DHT22;43277;52.672;6.984;2023-08-06T12:34:39;21.00;99.90
57434;DHT22;43277;52.672;6.984;2023-08-06T12:37:05;21.30;99.90
57434;DHT22;43277;52.672;6.984;2023-08-06T12:39:31;21.90;99.90
57434;DHT22;43277;52.672;6.984;2023-08-06T12:41:58;22.50;99.90
57434;DHT22;43277;52.672;6.984;2023-08-06T12:44:24;23.10;99.90
57434;DHT22;43277;52.672;6.984;2023-08-06T12:46:51;23.30;99.90
57434;DHT22;43277;52.672;6.984;2023-08-06T12:49:17;23.10;99.90
57434;DHT22;43277;52.672;6.984;2023-08-06T12:51:43;23.00;99.90
57434;DHT22;43277;52.672;6.984;2023-08-06T12:54:08;22.90;99.90
57434;DHT22;43277;52.672;6.984;2023-08-06T12:56:34;22.60;99.90
57434;DHT22;43277;52.672;6.984;2023-08-06T12:59:00;22.30;99.90
57434;DHT22;43277;52.672;6.984;2023-08-06T13:01:26;22.00;99.90
57434;DHT22;43277;52.672;6.984;2023-08-06T13:03:51;21.70;99.90
57434;DHT22;43277;52.672;6.984;2023-08-06T13:06:17;21.50;99.90
57434;DHT22;43277;52.672;6.984;2023-08-06T13:08:42;21.20;99.90
57434;DHT22;43277;52.672;6.984;2023-08-06T13:11:10;21.00;99.90
57434;DHT22;43277;52.672;6.984;2023-08-06T13:13:36;20.80;99.90
57434;DHT22;43277;52.672;6.984;2023-08-06T13:16:01;20.70;99.90
57434;DHT22;43277;52.672;6.984;2023-08-06T13:18:27;20.60;99.90
57434;DHT22;43277;52.672;6.984;2023-08-06T13:20:54;20.50;99.90
57434;DHT22;43277;52.672;6.984;2023-08-06T13:23:20;20.40;99.90
57434;DHT22;43277;52.672;6.984;2023-08-06T13:25:46;20.40;99.90
57434;DHT22;43277;52.672;6.984;2023-08-06T13:28:12;20.30;99.90
57434;DHT22;43277;52.672;6.984;2023-08-06T13:30:39;20.30;99.90
57434;DHT22;43277;52.672;6.984;2023-08-06T13:33:09;20.40;99.90
57434;DHT22;43277;52.672;6.984;2023-08-06T13:35:34;20.50;99.90
57434;DHT22;43277;52.672;6.984;2023-08-06T13:38:00;20.60;99.90
57434;DHT22;43277;52.672;6.984;2023-08-06T13:40:28;20.70;99.90
57434;DHT22;43277;52.672;6.984;2023-08-06T13:42:55;20.80;99.90
57434;DHT22;43277;52.672;6.984;2023-08-06T13:45:21;21.00;99.90
57434;DHT22;43277;52.672;6.984;2023-08-06T13:47:47;21.30;99.90
57434;DHT22;43277;52.672;6.984;2023-08-06T13:50:13;21.70;99.90
57434;DHT22;43277;52.672;6.984;2023-08-06T13:52:39;22.30;99.90
57434;DHT22;43277;52.672;6.984;2023-08-06T13:55:05;22.90;99.90
57434;DHT22;43277;52.672;6.984;2023-08-06T13:57:31;23.30;99.90
57434;DHT22;43277;52.672;6.984;2023-08-06T13:59:56;23.50;99.90
57434;DHT22;43277;52.672;6.984;2023-08-06T14:02:22;23.60;99.90
57434;DHT22;43277;52.672;6.984;2023-08-06T14:04:48;23.60;99.90
57434;DHT22;43277;52.672;6.984;2023-08-06T14:07:14;23.50;99.90
57434;DHT22;43277;52.672;6.984;2023-08-06T14:09:39;23.40;99.90
57434;DHT22;43277;52.672;6.984;2023-08-06T14:12:06;23.30;99.90
57434;DHT22;43277;52.672;6.984;2023-08-06T14:14:31;23.20;99.90
57434;DHT22;43277;52.672;6.984;2023-08-06T14:16:57;23.20;99.90
57434;DHT22;43277;52.672;6.984;2023-08-06T14:19:23;23.30;99.90
57434;DHT22;43277;52.672;6.984;2023-08-06T14:21:49;23.20;99.90
57434;DHT22;43277;52.672;6.984;2023-08-06T14:24:15;23.10;99.90
57434;DHT22;43277;52.672;6.984;2023-08-06T14:26:41;23.00;99.90
57434;DHT22;43277;52.672;6.984;2023-08-06T14:29:06;22.90;99.90
57434;DHT22;43277;52.672;6.984;2023-08-06T14:31:32;22.60;99.90
57434;DHT22;43277;52.672;6.984;2023-08-06T14:33:57;22.30;99.90
57434;DHT22;43277;52.672;6.984;2023-08-06T14:36:23;22.10;99.90
57434;DHT22;43277;52.672;6.984;2023-08-06T14:38:49;21.90;99.90
57434;DHT22;43277;52.672;6.984;2023-08-06T14:41:14;21.60;99.90
57434;DHT22;43277;52.672;6.984;2023-08-06T14:43:40;21.40;99.90
57434;DHT22;43277;52.672;6.984;2023-08-06T14:46:06;21.20;99.90
57434;DHT22;43277;52.672;6.984;2023-08-06T14:48:31;21.10;99.90
57434;DHT22;43277;52.672;6.984;2023-08-06T14:50:57;20.80;99.90
57434;DHT22;43277;52.672;6.984;2023-08-06T14:53:23;20.80;99.90
57434;DHT22;43277;52.672;6.984;2023-08-06T14:55:48;20.60;99.90
57434;DHT22;43277;52.672;6.984;2023-08-06T14:58:14;20.40;99.90
57434;DHT22;43277;52.672;6.984;2023-08-06T15:00:39;20.30;99.90
57434;DHT22;43277;52.672;6.984;2023-08-06T15:03:05;20.30;99.90
57434;DHT22;43277;52.672;6.984;2023-08-06T15:05:31;20.20;99.90
57434;DHT22;43277;52.672;6.984;2023-08-06T15:07:56;20.10;99.90
57434;DHT22;43277;52.672;6.984;2023-08-06T15:10:22;20.00;99.90
57434;DHT22;43277;52.672;6.984;2023-08-06T15:12:48;19.90;99.90
57434;DHT22;43277;52.672;6.984;2023-08-06T15:15:14;19.80;99.90
57434;DHT22;43277;52.672;6.984;2023-08-06T15:17:40;19.70;99.90
57434;DHT22;43277;52.672;6.984;2023-08-06T15:20:06;19.60;99.90
57434;DHT22;43277;52.672;6.984;2023-08-06T15:22:32;19.50;99.90
57434;DHT22;43277;52.672;6.984;2023-08-06T15:24:59;19.40;99.90
57434;DHT22;43277;52.672;6.984;2023-08-06T15:27:25;19.30;99.90
57434;DHT22;43277;52.672;6.984;2023-08-06T15:29:51;19.20;99.90
57434;DHT22;43277;52.672;6.984;2023-08-06T15:32:16;19.10;99.90
57434;DHT22;43277;52.672;6.984;2023-08-06T15:34:42;19.00;99.90
57434;DHT22;43277;52.672;6.984;2023-08-06T15:37:08;18.90;99.90
57434;DHT22;43277;52.672;6.984;2023-08-06T15:39:34;18.90;99.90
57434;DHT22;43277;52.672;6.984;2023-08-06T15:41:59;18.80;99.90